createdAt,value
2018-03-22T00:00:58.164Z,3.40
2018-03-22T00:03:27.238Z,3.41
2018-03-22T00:05:55.836Z,3.35
2018-03-22T00:08:24.287Z,3.38
2018-03-22T00:10:52.900Z,3.29
2018-03-22T00:13:21.575Z,3.25
2018-03-22T00:15:50.432Z,3.29
2018-03-22T00:18:19.446Z,3.19
2018-03-22T00:20:48.625Z,3.15
2018-03-22T00:23:17.789Z,3.03
2018-03-22T00:25:46.340Z,2.97
2018-03-22T00:28:15.583Z,2.87
2018-03-22T00:30:44.101Z,2.94
2018-03-22T00:33:12.553Z,2.95
2018-03-22T00:35:41.148Z,2.89
2018-03-22T00:38:09.811Z,2.94
2018-03-22T00:40:38.879Z,2.82
2018-03-22T00:43:07.805Z,2.82
2018-03-22T00:45:36.324Z,2.77
2018-03-22T00:48:04.881Z,2.82
2018-03-22T00:50:33.425Z,2.80
2018-03-22T00:53:02.140Z,2.79
2018-03-22T00:55:30.736Z,2.82
2018-03-22T00:57:59.338Z,2.75
2018-03-22T01:00:28.009Z,2.68
2018-03-22T01:02:56.710Z,2.90
2018-03-22T01:05:25.268Z,2.89
2018-03-22T01:07:54.282Z,2.74
2018-03-22T01:10:22.797Z,2.73
2018-03-22T01:12:51.713Z,2.52
2018-03-22T01:15:23.262Z,2.61
2018-03-22T01:17:51.868Z,2.65
2018-03-22T01:20:20.504Z,2.69
2018-03-22T01:22:48.965Z,2.72
2018-03-22T01:25:18.153Z,2.69
2018-03-22T01:27:46.710Z,2.62
2018-03-22T01:30:24.046Z,2.64
2018-03-22T01:32:52.457Z,2.54
2018-03-22T01:35:21.269Z,2.58
2018-03-22T01:37:49.922Z,2.52
2018-03-22T01:40:18.450Z,2.58
2018-03-22T01:42:47.100Z,2.59
2018-03-22T01:45:15.762Z,2.48
2018-03-22T01:47:44.281Z,2.58
2018-03-22T01:50:12.732Z,2.55
2018-03-22T01:52:50.369Z,2.55
2018-03-22T01:55:19.478Z,2.60
2018-03-22T01:57:48.025Z,2.65
2018-03-22T02:00:16.518Z,2.64
2018-03-22T02:02:44.969Z,2.63
2018-03-22T02:05:13.768Z,2.66
2018-03-22T02:07:42.616Z,2.56
2018-03-22T02:10:11.445Z,2.47
2018-03-22T02:12:40.022Z,2.55
2018-03-22T02:15:08.906Z,2.52
2018-03-22T02:17:37.468Z,2.49
2018-03-22T02:20:06.146Z,2.47
2018-03-22T02:22:35.044Z,2.38
2018-03-22T02:25:03.808Z,2.30
2018-03-22T02:27:32.282Z,2.28
2018-03-22T02:30:00.760Z,2.37
2018-03-22T02:32:29.497Z,2.26
2018-03-22T02:34:58.200Z,2.29
2018-03-22T02:37:26.862Z,2.26
2018-03-22T02:39:55.380Z,2.35
2018-03-22T02:42:24.070Z,2.28
2018-03-22T02:44:52.728Z,2.29
2018-03-22T02:47:21.230Z,2.30
2018-03-22T02:49:49.649Z,2.27
2018-03-22T02:52:18.385Z,2.19
2018-03-22T02:54:47.045Z,2.29
2018-03-22T02:57:15.526Z,2.28
2018-03-22T02:59:43.994Z,2.23
2018-03-22T03:02:13.281Z,2.29
2018-03-22T03:04:41.716Z,2.11
2018-03-22T03:07:10.666Z,2.23
2018-03-22T03:09:39.260Z,2.31
2018-03-22T03:12:07.936Z,2.24
2018-03-22T03:14:36.524Z,2.24
2018-03-22T03:17:05.445Z,2.19
2018-03-22T03:19:34.226Z,2.12
2018-03-22T03:22:03.091Z,2.13
2018-03-22T03:24:31.775Z,2.17
2018-03-22T03:27:00.595Z,2.22
2018-03-22T03:29:29.465Z,2.29
2018-03-22T03:31:57.968Z,2.28
2018-03-22T03:34:26.598Z,2.30
2018-03-22T03:36:55.123Z,2.28
2018-03-22T03:39:23.548Z,2.27
2018-03-22T03:41:52.176Z,2.28
2018-03-22T03:44:21.426Z,2.25
2018-03-22T03:46:50.088Z,2.26
2018-03-22T03:49:18.774Z,2.24
2018-03-22T03:51:47.226Z,2.19
2018-03-22T03:54:15.704Z,2.28
2018-03-22T03:56:44.155Z,2.32
2018-03-22T03:59:12.729Z,2.26
2018-03-22T04:01:41.589Z,2.33
2018-03-22T04:04:10.396Z,2.31
2018-03-22T04:06:38.865Z,2.28
2018-03-22T04:09:07.497Z,2.33
2018-03-22T04:11:36.048Z,2.29
2018-03-22T04:14:04.771Z,2.24
2018-03-22T04:16:33.795Z,2.33
2018-03-22T04:19:02.589Z,2.30
2018-03-22T04:21:31.184Z,2.26
2018-03-22T04:23:59.812Z,2.32
2018-03-22T04:26:28.374Z,2.33
2018-03-22T04:28:56.986Z,2.29
2018-03-22T04:31:25.602Z,2.29
2018-03-22T04:33:54.213Z,2.32
2018-03-22T04:36:22.849Z,2.35
2018-03-22T04:38:51.728Z,2.23
2018-03-22T04:41:20.113Z,2.25
2018-03-22T04:43:48.798Z,2.29
2018-03-22T04:46:17.317Z,2.27
2018-03-22T04:48:46.000Z,2.25
2018-03-22T04:51:14.894Z,2.27
2018-03-22T04:53:43.489Z,2.35
2018-03-22T04:56:12.179Z,2.30
2018-03-22T04:58:40.823Z,2.27
2018-03-22T05:04:04.444Z,2.24
2018-03-22T05:06:32.850Z,2.45
2018-03-22T05:09:01.310Z,2.41
2018-03-22T05:11:29.644Z,2.38
2018-03-22T05:13:57.909Z,2.41
2018-03-22T05:16:26.398Z,2.46
2018-03-22T05:19:01.563Z,2.45
2018-03-22T05:21:30.056Z,2.43
2018-03-22T05:23:58.480Z,2.37
2018-03-22T05:26:26.803Z,2.46
2018-03-22T05:28:55.133Z,2.35
2018-03-22T05:31:23.455Z,2.40
2018-03-22T05:33:51.732Z,2.41
2018-03-22T05:36:20.020Z,2.36
2018-03-22T05:38:48.388Z,2.48
2018-03-22T05:41:16.884Z,2.47
2018-03-22T05:43:45.149Z,2.53
2018-03-22T05:46:13.440Z,2.57
2018-03-22T05:48:41.898Z,2.62
2018-03-22T05:51:10.286Z,2.55
2018-03-22T05:53:38.560Z,2.48
2018-03-22T05:56:06.923Z,2.57
2018-03-22T05:58:35.336Z,2.64
2018-03-22T06:01:03.708Z,2.71
2018-03-22T06:03:31.961Z,2.70
2018-03-22T06:06:00.272Z,2.72
2018-03-22T06:08:28.585Z,2.77
2018-03-22T06:10:57.042Z,2.69
2018-03-22T06:13:25.452Z,2.75
2018-03-22T06:15:53.950Z,2.77
2018-03-22T06:18:22.339Z,2.80
2018-03-22T06:20:50.710Z,2.79
2018-03-22T06:23:19.072Z,2.87
2018-03-22T06:25:47.385Z,2.92
2018-03-22T06:28:15.917Z,3.11
2018-03-22T06:30:44.212Z,3.01
2018-03-22T06:33:12.460Z,3.05
2018-03-22T06:35:40.973Z,2.92
2018-03-22T06:38:09.442Z,2.97
2018-03-22T06:40:37.749Z,2.95
2018-03-22T06:43:06.109Z,2.82
2018-03-22T06:45:34.465Z,2.83
2018-03-22T06:48:02.946Z,2.78
2018-03-22T06:50:31.233Z,2.57
2018-03-22T06:52:59.673Z,2.57
2018-03-22T06:55:28.132Z,2.40
2018-03-22T06:57:56.675Z,2.47
2018-03-22T07:00:25.257Z,2.45
2018-03-22T07:02:53.559Z,2.54
2018-03-22T07:05:23.856Z,2.50
2018-03-22T07:07:52.147Z,2.32
2018-03-22T07:10:20.555Z,2.27
2018-03-22T07:12:48.896Z,2.10
2018-03-22T07:15:17.191Z,2.01
2018-03-22T07:17:45.492Z,2.05
2018-03-22T07:20:13.900Z,1.84
2018-03-22T07:22:42.187Z,1.81
2018-03-22T07:25:10.488Z,1.67
2018-03-22T07:27:38.871Z,1.80
2018-03-22T07:30:07.175Z,1.79
2018-03-22T07:32:35.452Z,1.73
2018-03-22T07:35:03.776Z,1.68
2018-03-22T07:37:32.153Z,1.75
2018-03-22T07:40:00.491Z,1.74
2018-03-22T07:42:28.879Z,1.72
2018-03-22T07:44:57.341Z,1.75
2018-03-22T07:47:25.716Z,1.75
2018-03-22T07:49:54.001Z,2.01
2018-03-22T07:52:22.351Z,1.72
2018-03-22T07:54:50.668Z,2.03
2018-03-22T07:57:19.062Z,2.08
2018-03-22T07:59:47.383Z,2.09
2018-03-22T08:02:15.825Z,2.29
2018-03-22T08:04:44.125Z,2.19
2018-03-22T08:07:12.496Z,2.15
2018-03-22T08:09:41.173Z,2.42
2018-03-22T08:12:09.616Z,2.24
2018-03-22T08:14:38.136Z,2.34
2018-03-22T08:17:06.511Z,2.34
2018-03-22T08:19:34.840Z,2.33
2018-03-22T08:22:03.131Z,2.37
2018-03-22T08:24:31.491Z,2.41
2018-03-22T08:26:59.889Z,2.25
2018-03-22T08:29:28.372Z,2.16
2018-03-22T08:31:56.671Z,2.38
2018-03-22T08:34:24.948Z,2.31
2018-03-22T08:36:53.246Z,2.23
2018-03-22T08:39:21.524Z,2.21
2018-03-22T08:41:49.857Z,2.10
2018-03-22T08:44:18.510Z,1.98
2018-03-22T08:46:46.808Z,2.18
2018-03-22T08:49:15.065Z,2.03
2018-03-22T08:51:43.385Z,2.24
2018-03-22T08:54:11.660Z,2.07
2018-03-22T08:56:39.968Z,1.98
2018-03-22T08:59:08.338Z,2.10
2018-03-22T09:01:36.637Z,2.33
2018-03-22T09:04:04.915Z,2.30
2018-03-22T09:06:33.370Z,2.12
2018-03-22T09:09:01.681Z,2.33
2018-03-22T09:11:30.109Z,2.26
2018-03-22T09:13:58.962Z,2.18
2018-03-22T09:16:27.248Z,2.18
2018-03-22T09:18:55.532Z,2.21
2018-03-22T09:21:23.816Z,2.10
2018-03-22T09:23:52.117Z,2.19
2018-03-22T09:26:20.473Z,2.07
2018-03-22T09:28:48.764Z,2.08
2018-03-22T09:31:17.216Z,2.03
2018-03-22T09:33:45.476Z,2.01
2018-03-22T09:36:13.973Z,2.01
2018-03-22T09:38:42.308Z,2.03
2018-03-22T09:41:10.729Z,1.98
2018-03-22T09:43:39.033Z,1.91
2018-03-22T09:46:07.340Z,2.07
2018-03-22T09:48:35.787Z,2.04
2018-03-22T09:51:04.187Z,1.97
2018-03-22T09:53:32.532Z,2.00
2018-03-22T09:56:01.028Z,1.95
2018-03-22T09:58:29.420Z,1.87
2018-03-22T10:00:57.744Z,1.87
2018-03-22T10:03:26.174Z,2.03
2018-03-22T10:05:54.553Z,1.97
2018-03-22T10:08:22.855Z,2.02
2018-03-22T10:10:51.283Z,2.01
2018-03-22T10:13:19.929Z,2.00
2018-03-22T10:15:48.350Z,2.14
2018-03-22T10:18:16.645Z,2.05
2018-03-22T10:20:45.187Z,2.22
2018-03-22T10:23:13.614Z,2.30
2018-03-22T10:25:41.931Z,2.30
2018-03-22T10:28:10.204Z,2.20
2018-03-22T10:30:38.505Z,2.24
2018-03-22T10:33:06.858Z,2.27
2018-03-22T10:35:36.125Z,2.35
2018-03-22T10:38:04.389Z,2.20
2018-03-22T10:40:32.677Z,2.04
2018-03-22T10:43:01.268Z,2.42
2018-03-22T10:45:29.698Z,2.42
2018-03-22T10:47:58.020Z,2.44
2018-03-22T10:50:26.597Z,2.26
2018-03-22T10:52:54.887Z,2.44
2018-03-22T10:55:23.216Z,2.42
2018-03-22T10:57:51.644Z,2.46
2018-03-22T11:00:24.112Z,2.49
2018-03-22T11:02:54.208Z,2.60
2018-03-22T11:05:22.526Z,2.60
2018-03-22T11:07:51.476Z,2.67
2018-03-22T11:10:19.943Z,2.64
2018-03-22T11:12:48.256Z,2.89
2018-03-22T11:15:16.569Z,2.89
2018-03-22T11:17:44.920Z,2.93
2018-03-22T11:20:13.196Z,2.85
2018-03-22T11:22:41.453Z,2.89
2018-03-22T11:25:09.725Z,2.86
2018-03-22T11:27:38.323Z,2.88
2018-03-22T11:30:06.852Z,3.01
2018-03-22T11:32:35.299Z,3.21
2018-03-22T11:35:03.620Z,3.14
2018-03-22T11:37:31.889Z,2.94
2018-03-22T11:40:00.144Z,3.21
2018-03-22T11:42:28.585Z,3.32
2018-03-22T11:44:57.081Z,3.34
2018-03-22T11:47:25.366Z,3.23
2018-03-22T11:49:53.648Z,3.42
2018-03-22T11:52:22.020Z,3.59
2018-03-22T11:54:50.322Z,3.45
2018-03-22T11:57:18.609Z,3.37
2018-03-22T11:59:47.257Z,3.31
2018-03-22T12:02:15.579Z,3.09
2018-03-22T12:04:43.882Z,3.24
2018-03-22T12:07:12.432Z,3.23
2018-03-22T12:09:40.897Z,3.38
2018-03-22T12:12:09.231Z,3.37
2018-03-22T12:14:37.568Z,3.35
2018-03-22T12:17:05.944Z,3.31
2018-03-22T12:19:34.532Z,3.30
2018-03-22T12:22:02.904Z,3.23
2018-03-22T12:24:31.166Z,3.35
2018-03-22T12:27:00.545Z,3.41
2018-03-22T12:29:28.821Z,3.47
2018-03-22T12:31:57.149Z,3.49
2018-03-22T12:34:25.596Z,3.35
2018-03-22T12:36:53.942Z,3.69
2018-03-22T12:39:22.431Z,3.60
2018-03-22T12:41:50.881Z,3.75
2018-03-22T12:44:19.307Z,3.69
2018-03-22T12:46:47.603Z,3.70
2018-03-22T12:49:16.099Z,3.67
2018-03-22T12:51:44.525Z,3.59
2018-03-22T12:54:12.841Z,3.67
2018-03-22T12:56:41.447Z,3.71
2018-03-22T12:59:10.006Z,3.76
2018-03-22T13:01:38.492Z,3.75
2018-03-22T13:04:06.879Z,3.86
2018-03-22T13:06:35.617Z,3.75
2018-03-22T13:09:04.756Z,3.90
2018-03-22T13:11:33.135Z,3.86
2018-03-22T13:14:01.588Z,3.80
2018-03-22T13:16:29.903Z,3.96
2018-03-22T13:18:58.339Z,3.77
2018-03-22T13:21:26.637Z,3.82
2018-03-22T13:23:54.937Z,3.89
2018-03-22T13:26:23.234Z,3.95
2018-03-22T13:28:51.971Z,4.09
2018-03-22T13:31:20.398Z,4.11
2018-03-22T13:33:48.789Z,4.16
2018-03-22T13:36:17.125Z,3.94
2018-03-22T13:38:45.402Z,4.03
2018-03-22T13:41:13.796Z,4.00
2018-03-22T13:43:42.148Z,4.05
2018-03-22T13:46:10.508Z,4.15
2018-03-22T13:48:39.049Z,4.08
2018-03-22T13:51:07.403Z,3.97
2018-03-22T13:53:35.653Z,4.07
2018-03-22T13:56:03.984Z,4.08
2018-03-22T13:58:32.238Z,4.20
2018-03-22T14:01:00.617Z,4.22
2018-03-22T14:03:29.566Z,4.23
2018-03-22T14:05:57.980Z,4.18
2018-03-22T14:08:26.296Z,4.18
2018-03-22T14:10:54.643Z,4.23
2018-03-22T14:13:23.001Z,4.25
2018-03-22T14:15:51.542Z,4.23
2018-03-22T14:18:20.118Z,4.07
2018-03-22T14:20:48.647Z,4.12
2018-03-22T14:23:17.208Z,4.19
2018-03-22T14:25:45.509Z,4.26
2018-03-22T14:28:13.958Z,4.17
2018-03-22T14:30:42.359Z,4.19
2018-03-22T14:33:10.769Z,4.22
2018-03-22T14:35:39.427Z,4.17
2018-03-22T14:38:08.256Z,4.30
2018-03-22T14:40:36.969Z,4.17
2018-03-22T14:43:05.455Z,4.35
2018-03-22T14:45:34.175Z,4.24
2018-03-22T14:48:02.675Z,4.22
2018-03-22T14:50:31.140Z,4.29
2018-03-22T14:52:59.402Z,4.34
2018-03-22T14:55:27.747Z,4.33
2018-03-22T14:57:56.077Z,4.24
2018-03-22T15:00:24.476Z,4.31
2018-03-22T15:02:53.057Z,4.27
2018-03-22T15:05:21.412Z,4.33
2018-03-22T15:07:49.875Z,4.38
2018-03-22T15:10:18.153Z,4.55
2018-03-22T15:12:46.490Z,4.41
2018-03-22T15:15:15.042Z,4.54
2018-03-22T15:17:43.548Z,4.55
2018-03-22T15:20:11.889Z,4.27
2018-03-22T15:22:40.279Z,4.38
2018-03-22T15:25:08.644Z,4.32
2018-03-22T15:27:36.958Z,4.41
2018-03-22T15:30:05.454Z,4.43
2018-03-22T15:32:33.882Z,4.43
2018-03-22T15:35:02.265Z,4.29
2018-03-22T15:37:30.804Z,4.41
2018-03-22T15:39:59.110Z,4.30
2018-03-22T15:42:27.563Z,4.29
2018-03-22T15:44:55.969Z,4.31
2018-03-22T15:47:24.341Z,4.28
2018-03-22T15:49:52.775Z,4.38
2018-03-22T15:52:21.344Z,4.29
2018-03-22T15:54:49.906Z,4.33
2018-03-22T15:57:18.325Z,4.29
2018-03-22T16:01:07.901Z,4.32
2018-03-22T16:03:36.172Z,4.30
2018-03-22T16:06:04.468Z,4.32
2018-03-22T16:08:32.949Z,4.36
2018-03-22T16:14:00.248Z,4.36
2018-03-22T16:16:28.672Z,4.12
2018-03-22T16:18:57.125Z,4.28
2018-03-22T16:21:25.448Z,4.38
2018-03-22T16:23:53.888Z,4.29
2018-03-22T16:26:22.276Z,4.25
2018-03-22T16:28:50.860Z,4.23
2018-03-22T16:31:19.439Z,4.18
2018-03-22T16:33:48.106Z,4.09
2018-03-22T16:36:16.599Z,4.14
2018-03-22T16:38:45.913Z,4.08
2018-03-22T16:41:14.370Z,4.07
2018-03-22T16:43:42.720Z,4.13
2018-03-22T16:46:11.032Z,4.06
2018-03-22T16:48:39.488Z,3.92
2018-03-22T16:51:07.825Z,3.95
2018-03-22T16:53:36.452Z,3.99
2018-03-22T16:56:04.779Z,3.97
2018-03-22T16:58:33.204Z,4.02
2018-03-22T17:01:01.480Z,4.05
2018-03-22T17:03:29.967Z,3.95
2018-03-22T17:05:58.468Z,3.91
2018-03-22T17:08:26.925Z,4.02
2018-03-22T17:10:55.205Z,4.01
2018-03-22T17:13:23.473Z,3.92
2018-03-22T17:15:51.790Z,4.02
2018-03-22T17:18:20.108Z,4.01
2018-03-22T17:20:48.430Z,3.92
2018-03-22T17:23:16.720Z,3.95
2018-03-22T17:25:45.100Z,4.05
2018-03-22T17:28:13.345Z,4.02
2018-03-22T17:30:41.813Z,4.07
2018-03-22T17:33:10.277Z,4.01
2018-03-22T17:35:38.610Z,4.06
2018-03-22T17:38:07.096Z,4.00
2018-03-22T17:40:35.581Z,4.08
2018-03-22T17:43:03.882Z,4.02
2018-03-22T17:45:32.520Z,4.06
2018-03-22T17:48:00.876Z,4.08
2018-03-22T17:50:29.249Z,4.04
2018-03-22T17:52:57.767Z,3.87
2018-03-22T17:55:26.125Z,4.02
2018-03-22T17:57:54.600Z,3.88
2018-03-22T18:00:23.308Z,4.00
2018-03-22T18:02:51.952Z,3.98
2018-03-22T18:05:20.535Z,4.05
2018-03-22T18:07:49.808Z,4.05
2018-03-22T18:10:18.159Z,3.97
2018-03-22T18:12:46.641Z,3.91
2018-03-22T18:15:14.942Z,4.01
2018-03-22T18:17:43.259Z,3.99
2018-03-22T18:20:11.875Z,4.02
2018-03-22T18:22:40.353Z,4.01
2018-03-22T18:25:08.646Z,4.06
2018-03-22T18:27:36.965Z,4.00
2018-03-22T18:30:05.408Z,4.07
2018-03-22T18:32:33.808Z,3.99
2018-03-22T18:35:02.293Z,4.13
2018-03-22T18:37:30.645Z,4.08
2018-03-22T18:39:58.909Z,4.00
2018-03-22T18:42:27.564Z,4.14
2018-03-22T18:44:56.095Z,4.13
2018-03-22T18:47:24.415Z,4.17
2018-03-22T18:49:52.724Z,4.19
2018-03-22T18:52:21.290Z,4.16
2018-03-22T18:54:49.552Z,4.11
2018-03-22T18:58:20.927Z,4.19
2018-03-22T19:00:49.336Z,4.16
2018-03-22T19:03:17.604Z,4.17
2018-03-22T19:05:46.305Z,4.18
2018-03-22T19:08:14.621Z,4.18
2018-03-22T19:10:43.028Z,4.19
2018-03-22T19:13:11.454Z,4.13
2018-03-22T19:15:39.848Z,4.19
2018-03-22T19:18:08.181Z,4.14
2018-03-22T19:20:36.928Z,4.19
2018-03-22T19:23:05.249Z,4.11
2018-03-22T19:25:34.173Z,4.07
2018-03-22T19:28:02.712Z,4.22
2018-03-22T19:30:31.078Z,4.19
2018-03-22T19:32:59.527Z,4.23
2018-03-22T19:35:28.089Z,4.35
2018-03-22T19:37:56.472Z,4.39
2018-03-22T19:40:24.776Z,4.27
2018-03-22T19:42:53.133Z,4.37
2018-03-22T19:45:21.523Z,4.32
2018-03-22T19:47:49.904Z,4.36
2018-03-22T19:50:18.726Z,4.58
2018-03-22T19:52:47.032Z,4.39
2018-03-22T19:55:15.396Z,4.47
2018-03-22T19:57:43.657Z,4.42
2018-03-22T20:00:12.052Z,4.44
2018-03-22T20:02:40.399Z,4.36
2018-03-22T20:05:08.873Z,4.63
2018-03-22T20:07:37.308Z,4.49
2018-03-22T20:10:05.804Z,4.56
2018-03-22T20:12:34.516Z,4.67
2018-03-22T20:15:02.941Z,4.79
2018-03-22T20:17:31.637Z,4.73
2018-03-22T20:19:59.967Z,4.65
2018-03-22T20:22:28.331Z,4.74
2018-03-22T20:24:56.664Z,4.90
2018-03-22T20:27:25.121Z,4.85
2018-03-22T20:29:53.547Z,4.82
2018-03-22T20:32:22.044Z,4.99
2018-03-22T20:34:50.343Z,4.95
2018-03-22T20:37:18.748Z,4.90
2018-03-22T20:39:47.187Z,4.95
2018-03-22T20:42:15.754Z,4.97
2018-03-22T20:44:44.120Z,4.88
2018-03-22T20:47:12.480Z,4.89
2018-03-22T20:49:41.039Z,4.92
2018-03-22T20:52:09.458Z,4.84
2018-03-22T20:54:37.825Z,4.92
2018-03-22T20:57:06.138Z,4.90
2018-03-22T20:59:34.464Z,4.90
2018-03-22T21:02:02.890Z,4.94
2018-03-22T21:04:31.211Z,4.89
2018-03-22T21:06:59.693Z,4.97
2018-03-22T21:09:28.015Z,4.86
2018-03-22T21:11:56.560Z,4.98
2018-03-22T21:14:24.947Z,4.91
2018-03-22T21:16:53.312Z,5.05
2018-03-22T21:19:21.764Z,5.07
2018-03-22T21:21:50.136Z,5.01
2018-03-22T21:24:18.744Z,5.03
2018-03-22T21:26:47.103Z,5.09
2018-03-22T21:29:15.612Z,5.08
2018-03-22T21:31:44.120Z,5.15
2018-03-22T21:34:12.388Z,5.23
2018-03-22T21:36:40.679Z,5.15
2018-03-22T21:39:09.164Z,5.29
2018-03-22T21:41:53.424Z,5.09
2018-03-22T21:44:21.888Z,5.13
2018-03-22T21:46:50.232Z,5.07
2018-03-22T21:49:19.132Z,5.20
2018-03-22T21:51:56.400Z,5.07
2018-03-22T21:54:24.700Z,5.00
2018-03-22T21:56:53.012Z,5.06
2018-03-22T21:59:21.332Z,5.08
2018-03-22T22:01:49.619Z,5.12
2018-03-22T22:04:17.900Z,5.18
2018-03-22T22:06:46.487Z,5.02
2018-03-22T22:09:14.793Z,5.08
2018-03-22T22:11:43.322Z,4.93
2018-03-22T22:14:11.684Z,5.20
2018-03-22T22:16:40.022Z,4.97
2018-03-22T22:19:08.369Z,4.80
2018-03-22T22:21:36.680Z,4.79
2018-03-22T22:24:05.222Z,4.94
2018-03-22T22:26:33.637Z,4.92
2018-03-22T22:29:01.963Z,4.96
2018-03-22T22:31:30.376Z,4.79
2018-03-22T22:33:58.685Z,4.88
2018-03-22T22:36:27.032Z,4.78
2018-03-22T22:38:55.512Z,4.83
2018-03-22T22:41:23.900Z,4.79
2018-03-22T22:43:52.270Z,5.06
2018-03-22T22:46:20.583Z,4.87
2018-03-22T22:48:49.112Z,4.96
2018-03-22T22:51:17.495Z,4.97
2018-03-22T22:53:45.896Z,4.89
2018-03-22T22:56:14.440Z,4.99
2018-03-22T22:58:42.809Z,4.95
2018-03-22T23:01:11.143Z,4.95
2018-03-22T23:03:39.713Z,5.06
2018-03-22T23:06:08.116Z,5.17
2018-03-22T23:08:36.502Z,5.11
2018-03-22T23:11:04.878Z,5.11
2018-03-22T23:13:34.465Z,5.01
2018-03-22T23:16:02.869Z,4.78
2018-03-22T23:18:31.252Z,4.90
2018-03-22T23:20:59.677Z,4.90
2018-03-22T23:23:28.075Z,4.88
2018-03-22T23:25:56.424Z,4.89
2018-03-22T23:28:25.280Z,4.85
2018-03-22T23:30:53.658Z,4.79
2018-03-22T23:33:22.035Z,4.86
2018-03-22T23:35:50.529Z,4.98
2018-03-22T23:38:19.019Z,4.78
2018-03-22T23:40:47.435Z,4.90
2018-03-22T23:43:15.826Z,4.73
2018-03-22T23:45:44.233Z,4.76
2018-03-22T23:48:12.670Z,4.76
2018-03-22T23:50:41.088Z,4.90
2018-03-22T23:53:09.466Z,4.71
2018-03-22T23:55:38.016Z,4.78
2018-03-22T23:58:06.349Z,4.71
